sensor_id;sensor_type;location;lat;lon;timestamp;P1;durP1;ratioP1;P2;durP2;ratioP2
64959;SDS011;51487;52.266;10.542;2023-02-03T00:01:30;3.83;;;2.95;;
64959;SDS011;51487;52.266;10.542;2023-02-03T00:03:55;3.75;;;3.10;;
64959;SDS011;51487;52.266;10.542;2023-02-03T00:06:21;3.20;;;2.90;;
64959;SDS011;51487;52.266;10.542;2023-02-03T00:08:47;3.38;;;2.88;;
64959;SDS011;51487;52.266;10.542;2023-02-03T00:11:13;3.53;;;2.90;;
64959;SDS011;51487;52.266;10.542;2023-02-03T00:13:39;3.60;;;3.13;;
64959;SDS011;51487;52.266;10.542;2023-02-03T00:16:04;4.22;;;3.30;;
64959;SDS011;51487;52.266;10.542;2023-02-03T00:18:31;3.28;;;2.92;;
64959;SDS011;51487;52.266;10.542;2023-02-03T00:20:57;4.53;;;3.63;;
64959;SDS011;51487;52.266;10.542;2023-02-03T00:23:23;4.30;;;3.90;;
64959;SDS011;51487;52.266;10.542;2023-02-03T00:25:50;4.13;;;3.70;;
64959;SDS011;51487;52.266;10.542;2023-02-03T00:28:16;4.13;;;3.42;;
64959;SDS011;51487;52.266;10.542;2023-02-03T00:30:42;5.97;;;4.32;;
64959;SDS011;51487;52.266;10.542;2023-02-03T00:33:07;4.50;;;3.92;;
64959;SDS011;51487;52.266;10.542;2023-02-03T00:35:36;4.65;;;4.00;;
64959;SDS011;51487;52.266;10.542;2023-02-03T00:38:03;4.90;;;4.00;;
64959;SDS011;51487;52.266;10.542;2023-02-03T00:40:29;4.57;;;3.88;;
64959;SDS011;51487;52.266;10.542;2023-02-03T00:42:55;7.20;;;4.38;;
64959;SDS011;51487;52.266;10.542;2023-02-03T00:45:21;7.90;;;4.95;;
64959;SDS011;51487;52.266;10.542;2023-02-03T00:47:46;6.22;;;4.55;;
64959;SDS011;51487;52.266;10.542;2023-02-03T00:50:12;5.22;;;4.72;;
64959;SDS011;51487;52.266;10.542;2023-02-03T00:52:38;7.82;;;5.15;;
64959;SDS011;51487;52.266;10.542;2023-02-03T00:55:04;5.53;;;4.85;;
64959;SDS011;51487;52.266;10.542;2023-02-03T00:57:30;6.30;;;5.70;;
64959;SDS011;51487;52.266;10.542;2023-02-03T00:59:56;6.38;;;5.70;;
64959;SDS011;51487;52.266;10.542;2023-02-03T01:02:22;7.38;;;6.10;;
64959;SDS011;51487;52.266;10.542;2023-02-03T01:04:48;8.05;;;5.88;;
64959;SDS011;51487;52.266;10.542;2023-02-03T01:07:14;7.28;;;5.95;;
64959;SDS011;51487;52.266;10.542;2023-02-03T01:09:40;8.02;;;6.68;;
64959;SDS011;51487;52.266;10.542;2023-02-03T01:12:05;7.95;;;7.03;;
64959;SDS011;51487;52.266;10.542;2023-02-03T01:14:31;8.73;;;7.03;;
64959;SDS011;51487;52.266;10.542;2023-02-03T01:16:57;8.20;;;7.05;;
64959;SDS011;51487;52.266;10.542;2023-02-03T01:19:23;10.45;;;7.57;;
64959;SDS011;51487;52.266;10.542;2023-02-03T01:21:48;9.23;;;7.60;;
64959;SDS011;51487;52.266;10.542;2023-02-03T01:24:14;9.82;;;8.20;;
64959;SDS011;51487;52.266;10.542;2023-02-03T01:26:40;9.55;;;7.85;;
64959;SDS011;51487;52.266;10.542;2023-02-03T01:29:07;10.38;;;8.48;;
64959;SDS011;51487;52.266;10.542;2023-02-03T01:31:35;11.00;;;9.05;;
64959;SDS011;51487;52.266;10.542;2023-02-03T01:34:04;10.27;;;8.70;;
64959;SDS011;51487;52.266;10.542;2023-02-03T01:36:32;10.90;;;9.38;;
64959;SDS011;51487;52.266;10.542;2023-02-03T01:38:59;11.35;;;9.65;;
64959;SDS011;51487;52.266;10.542;2023-02-03T01:41:26;11.40;;;9.40;;
64959;SDS011;51487;52.266;10.542;2023-02-03T01:43:57;14.45;;;10.40;;
64959;SDS011;51487;52.266;10.542;2023-02-03T01:49:09;13.27;;;10.88;;
64959;SDS011;51487;52.266;10.542;2023-02-03T01:51:46;17.35;;;12.02;;
64959;SDS011;51487;52.266;10.542;2023-02-03T01:54:15;16.30;;;12.40;;
64959;SDS011;51487;52.266;10.542;2023-02-03T01:56:57;16.58;;;12.77;;
64959;SDS011;51487;52.266;10.542;2023-02-03T01:59:29;17.48;;;13.48;;
64959;SDS011;51487;52.266;10.542;2023-02-03T02:01:56;18.90;;;13.82;;
64959;SDS011;51487;52.266;10.542;2023-02-03T02:04:24;17.30;;;13.82;;
64959;SDS011;51487;52.266;10.542;2023-02-03T02:06:56;17.98;;;13.75;;
64959;SDS011;51487;52.266;10.542;2023-02-03T02:09:23;19.70;;;13.20;;
64959;SDS011;51487;52.266;10.542;2023-02-03T02:11:50;15.43;;;13.75;;
64959;SDS011;51487;52.266;10.542;2023-02-03T02:14:16;16.83;;;13.27;;
64959;SDS011;51487;52.266;10.542;2023-02-03T02:35:00;15.25;;;11.65;;
64959;SDS011;51487;52.266;10.542;2023-02-03T02:40:41;14.95;;;11.10;;
64959;SDS011;51487;52.266;10.542;2023-02-03T02:43:38;13.63;;;10.80;;
64959;SDS011;51487;52.266;10.542;2023-02-03T02:46:21;18.42;;;12.07;;
64959;SDS011;51487;52.266;10.542;2023-02-03T02:49:14;18.88;;;11.70;;
64959;SDS011;51487;52.266;10.542;2023-02-03T02:51:45;14.55;;;10.30;;
64959;SDS011;51487;52.266;10.542;2023-02-03T02:54:17;14.52;;;9.55;;
64959;SDS011;51487;52.266;10.542;2023-02-03T02:56:49;13.75;;;9.60;;
64959;SDS011;51487;52.266;10.542;2023-02-03T03:01:46;12.57;;;9.30;;
64959;SDS011;51487;52.266;10.542;2023-02-03T03:04:12;9.95;;;8.35;;
64959;SDS011;51487;52.266;10.542;2023-02-03T03:06:48;12.13;;;9.30;;
64959;SDS011;51487;52.266;10.542;2023-02-03T03:12:13;11.25;;;8.15;;
64959;SDS011;51487;52.266;10.542;2023-02-03T03:14:59;10.48;;;7.82;;
64959;SDS011;51487;52.266;10.542;2023-02-03T03:17:39;10.00;;;7.53;;
64959;SDS011;51487;52.266;10.542;2023-02-03T03:20:13;10.30;;;7.05;;
64959;SDS011;51487;52.266;10.542;2023-02-03T03:22:47;10.48;;;7.72;;
64959;SDS011;51487;52.266;10.542;2023-02-03T03:25:45;10.65;;;7.88;;
64959;SDS011;51487;52.266;10.542;2023-02-03T03:28:26;8.40;;;6.82;;
64959;SDS011;51487;52.266;10.542;2023-02-03T03:31:14;12.80;;;6.90;;
64959;SDS011;51487;52.266;10.542;2023-02-03T03:33:43;7.93;;;6.35;;
64959;SDS011;51487;52.266;10.542;2023-02-03T03:36:45;8.98;;;6.38;;
64959;SDS011;51487;52.266;10.542;2023-02-03T03:39:25;9.77;;;6.10;;
64959;SDS011;51487;52.266;10.542;2023-02-03T03:47:40;9.13;;;6.28;;
64959;SDS011;51487;52.266;10.542;2023-02-03T03:50:19;10.35;;;7.00;;
64959;SDS011;51487;52.266;10.542;2023-02-03T03:52:50;9.88;;;6.93;;
64959;SDS011;51487;52.266;10.542;2023-02-03T03:55:19;10.10;;;6.10;;
64959;SDS011;51487;52.266;10.542;2023-02-03T03:57:53;9.32;;;6.13;;
64959;SDS011;51487;52.266;10.542;2023-02-03T04:00:26;8.73;;;6.03;;
64959;SDS011;51487;52.266;10.542;2023-02-03T04:02:56;8.77;;;6.18;;
64959;SDS011;51487;52.266;10.542;2023-02-03T04:05:29;8.25;;;6.13;;
64959;SDS011;51487;52.266;10.542;2023-02-03T04:07:57;11.10;;;6.38;;
64959;SDS011;51487;52.266;10.542;2023-02-03T04:10:30;10.40;;;5.90;;
64959;SDS011;51487;52.266;10.542;2023-02-03T04:13:00;8.90;;;5.95;;
64959;SDS011;51487;52.266;10.542;2023-02-03T04:15:28;11.23;;;6.20;;
64959;SDS011;51487;52.266;10.542;2023-02-03T04:17:54;11.25;;;5.93;;
64959;SDS011;51487;52.266;10.542;2023-02-03T04:20:21;7.72;;;5.60;;
64959;SDS011;51487;52.266;10.542;2023-02-03T04:22:47;8.18;;;5.85;;
64959;SDS011;51487;52.266;10.542;2023-02-03T04:25:13;10.50;;;5.63;;
64959;SDS011;51487;52.266;10.542;2023-02-03T04:27:39;7.82;;;5.05;;
64959;SDS011;51487;52.266;10.542;2023-02-03T04:30:05;6.57;;;4.80;;
64959;SDS011;51487;52.266;10.542;2023-02-03T04:32:31;7.18;;;5.25;;
64959;SDS011;51487;52.266;10.542;2023-02-03T04:34:59;8.40;;;4.88;;
64959;SDS011;51487;52.266;10.542;2023-02-03T04:37:25;7.93;;;4.82;;
64959;SDS011;51487;52.266;10.542;2023-02-03T04:39:51;7.43;;;4.72;;
64959;SDS011;51487;52.266;10.542;2023-02-03T04:42:19;6.95;;;4.45;;
64959;SDS011;51487;52.266;10.542;2023-02-03T04:44:45;8.88;;;4.90;;
64959;SDS011;51487;52.266;10.542;2023-02-03T04:47:11;6.60;;;4.68;;
64959;SDS011;51487;52.266;10.542;2023-02-03T04:49:37;8.18;;;4.47;;
64959;SDS011;51487;52.266;10.542;2023-02-03T04:52:03;7.47;;;5.13;;
64959;SDS011;51487;52.266;10.542;2023-02-03T04:54:29;9.57;;;5.53;;
64959;SDS011;51487;52.266;10.542;2023-02-03T04:56:55;8.48;;;5.68;;
64959;SDS011;51487;52.266;10.542;2023-02-03T04:59:20;6.75;;;4.78;;
64959;SDS011;51487;52.266;10.542;2023-02-03T05:01:46;5.28;;;4.47;;
64959;SDS011;51487;52.266;10.542;2023-02-03T05:04:12;9.20;;;5.38;;
64959;SDS011;51487;52.266;10.542;2023-02-03T05:06:37;13.20;;;4.93;;
64959;SDS011;51487;52.266;10.542;2023-02-03T05:09:03;9.75;;;5.43;;
64959;SDS011;51487;52.266;10.542;2023-02-03T05:11:28;5.40;;;4.50;;
64959;SDS011;51487;52.266;10.542;2023-02-03T05:13:54;9.63;;;5.18;;
64959;SDS011;51487;52.266;10.542;2023-02-03T05:16:20;8.10;;;5.00;;
64959;SDS011;51487;52.266;10.542;2023-02-03T05:18:46;9.77;;;5.50;;
64959;SDS011;51487;52.266;10.542;2023-02-03T05:21:12;10.63;;;5.43;;
64959;SDS011;51487;52.266;10.542;2023-02-03T05:23:37;9.52;;;4.93;;
64959;SDS011;51487;52.266;10.542;2023-02-03T05:26:03;8.05;;;4.78;;
64959;SDS011;51487;52.266;10.542;2023-02-03T05:28:29;6.60;;;5.30;;
64959;SDS011;51487;52.266;10.542;2023-02-03T05:30:57;9.13;;;5.40;;
64959;SDS011;51487;52.266;10.542;2023-02-03T05:33:24;8.48;;;4.50;;
64959;SDS011;51487;52.266;10.542;2023-02-03T05:35:49;8.45;;;4.65;;
64959;SDS011;51487;52.266;10.542;2023-02-03T05:38:15;11.10;;;5.32;;
64959;SDS011;51487;52.266;10.542;2023-02-03T05:40:41;7.72;;;4.80;;
64959;SDS011;51487;52.266;10.542;2023-02-03T05:43:25;8.70;;;5.25;;
64959;SDS011;51487;52.266;10.542;2023-02-03T05:45:52;7.88;;;4.93;;
64959;SDS011;51487;52.266;10.542;2023-02-03T05:48:18;6.88;;;4.43;;
64959;SDS011;51487;52.266;10.542;2023-02-03T05:50:44;9.68;;;5.03;;
64959;SDS011;51487;52.266;10.542;2023-02-03T05:53:10;6.47;;;4.50;;
64959;SDS011;51487;52.266;10.542;2023-02-03T05:55:36;9.75;;;4.80;;
64959;SDS011;51487;52.266;10.542;2023-02-03T05:58:02;8.30;;;4.93;;
64959;SDS011;51487;52.266;10.542;2023-02-03T06:00:28;9.02;;;5.00;;
64959;SDS011;51487;52.266;10.542;2023-02-03T06:02:55;7.50;;;4.35;;
64959;SDS011;51487;52.266;10.542;2023-02-03T06:05:29;9.75;;;4.70;;
64959;SDS011;51487;52.266;10.542;2023-02-03T06:07:56;9.25;;;4.45;;
64959;SDS011;51487;52.266;10.542;2023-02-03T06:10:23;7.45;;;4.03;;
64959;SDS011;51487;52.266;10.542;2023-02-03T06:12:49;8.55;;;4.55;;
64959;SDS011;51487;52.266;10.542;2023-02-03T06:15:16;9.07;;;4.40;;
64959;SDS011;51487;52.266;10.542;2023-02-03T06:17:45;9.30;;;4.72;;
64959;SDS011;51487;52.266;10.542;2023-02-03T06:20:13;9.95;;;4.68;;
64959;SDS011;51487;52.266;10.542;2023-02-03T06:22:43;8.75;;;4.18;;
64959;SDS011;51487;52.266;10.542;2023-02-03T06:25:09;7.20;;;4.60;;
64959;SDS011;51487;52.266;10.542;2023-02-03T06:27:35;9.38;;;5.82;;
64959;SDS011;51487;52.266;10.542;2023-02-03T06:30:01;9.52;;;5.10;;
64959;SDS011;51487;52.266;10.542;2023-02-03T06:32:27;9.57;;;4.00;;
64959;SDS011;51487;52.266;10.542;2023-02-03T06:34:53;11.20;;;4.13;;
64959;SDS011;51487;52.266;10.542;2023-02-03T06:37:18;8.95;;;3.95;;
64959;SDS011;51487;52.266;10.542;2023-02-03T06:39:44;8.40;;;4.40;;
64959;SDS011;51487;52.266;10.542;2023-02-03T06:42:09;8.75;;;3.88;;
64959;SDS011;51487;52.266;10.542;2023-02-03T06:44:35;10.23;;;3.55;;
64959;SDS011;51487;52.266;10.542;2023-02-03T06:47:00;6.30;;;3.67;;
64959;SDS011;51487;52.266;10.542;2023-02-03T06:49:27;7.50;;;3.50;;
64959;SDS011;51487;52.266;10.542;2023-02-03T06:51:53;8.20;;;3.55;;
64959;SDS011;51487;52.266;10.542;2023-02-03T06:54:19;6.53;;;3.75;;
64959;SDS011;51487;52.266;10.542;2023-02-03T06:56:45;8.23;;;3.88;;
64959;SDS011;51487;52.266;10.542;2023-02-03T06:59:11;9.63;;;4.00;;
64959;SDS011;51487;52.266;10.542;2023-02-03T07:01:37;10.40;;;4.63;;
64959;SDS011;51487;52.266;10.542;2023-02-03T07:04:02;9.07;;;3.58;;
64959;SDS011;51487;52.266;10.542;2023-02-03T07:06:29;10.98;;;4.47;;
64959;SDS011;51487;52.266;10.542;2023-02-03T07:08:58;8.60;;;4.35;;
64959;SDS011;51487;52.266;10.542;2023-02-03T07:11:26;7.35;;;3.65;;
64959;SDS011;51487;52.266;10.542;2023-02-03T07:13:52;6.93;;;4.00;;
64959;SDS011;51487;52.266;10.542;2023-02-03T07:16:18;6.88;;;3.75;;
64959;SDS011;51487;52.266;10.542;2023-02-03T07:18:44;5.60;;;3.35;;
64959;SDS011;51487;52.266;10.542;2023-02-03T07:21:10;8.15;;;4.53;;
64959;SDS011;51487;52.266;10.542;2023-02-03T07:23:37;8.00;;;4.15;;
64959;SDS011;51487;52.266;10.542;2023-02-03T07:26:03;6.38;;;3.30;;
64959;SDS011;51487;52.266;10.542;2023-02-03T07:28:32;6.47;;;4.00;;
64959;SDS011;51487;52.266;10.542;2023-02-03T07:30:59;10.45;;;3.50;;
64959;SDS011;51487;52.266;10.542;2023-02-03T07:33:26;9.32;;;3.60;;
64959;SDS011;51487;52.266;10.542;2023-02-03T07:35:53;7.28;;;3.83;;
64959;SDS011;51487;52.266;10.542;2023-02-03T07:38:20;11.07;;;3.63;;
64959;SDS011;51487;52.266;10.542;2023-02-03T07:40:47;6.20;;;3.70;;
64959;SDS011;51487;52.266;10.542;2023-02-03T07:43:12;10.32;;;3.67;;
64959;SDS011;51487;52.266;10.542;2023-02-03T07:45:38;6.53;;;3.33;;
64959;SDS011;51487;52.266;10.542;2023-02-03T07:48:04;6.07;;;3.03;;
64959;SDS011;51487;52.266;10.542;2023-02-03T07:50:31;6.13;;;3.63;;
64959;SDS011;51487;52.266;10.542;2023-02-03T07:52:59;5.90;;;3.03;;
64959;SDS011;51487;52.266;10.542;2023-02-03T07:55:25;5.13;;;3.10;;
64959;SDS011;51487;52.266;10.542;2023-02-03T07:57:57;4.88;;;3.15;;
64959;SDS011;51487;52.266;10.542;2023-02-03T08:00:23;5.33;;;3.33;;
64959;SDS011;51487;52.266;10.542;2023-02-03T08:02:49;7.43;;;3.40;;
64959;SDS011;51487;52.266;10.542;2023-02-03T08:05:16;7.20;;;3.33;;
64959;SDS011;51487;52.266;10.542;2023-02-03T08:07:43;4.00;;;3.13;;
64959;SDS011;51487;52.266;10.542;2023-02-03T08:10:10;5.85;;;3.10;;
64959;SDS011;51487;52.266;10.542;2023-02-03T08:12:39;6.55;;;3.20;;
64959;SDS011;51487;52.266;10.542;2023-02-03T08:15:07;4.47;;;3.35;;
64959;SDS011;51487;52.266;10.542;2023-02-03T08:17:33;5.30;;;2.67;;
64959;SDS011;51487;52.266;10.542;2023-02-03T08:19:59;5.07;;;2.85;;
64959;SDS011;51487;52.266;10.542;2023-02-03T08:22:24;3.78;;;2.58;;
64959;SDS011;51487;52.266;10.542;2023-02-03T08:24:50;5.20;;;2.60;;
64959;SDS011;51487;52.266;10.542;2023-02-03T08:27:20;2.65;;;2.45;;
64959;SDS011;51487;52.266;10.542;2023-02-03T08:29:47;4.68;;;3.05;;
64959;SDS011;51487;52.266;10.542;2023-02-03T08:32:14;3.58;;;2.30;;
64959;SDS011;51487;52.266;10.542;2023-02-03T08:34:43;5.43;;;2.95;;
64959;SDS011;51487;52.266;10.542;2023-02-03T08:37:10;3.55;;;2.30;;
64959;SDS011;51487;52.266;10.542;2023-02-03T08:39:37;4.80;;;2.70;;
64959;SDS011;51487;52.266;10.542;2023-02-03T08:42:03;5.88;;;2.20;;
64959;SDS011;51487;52.266;10.542;2023-02-03T08:44:30;3.67;;;2.33;;
64959;SDS011;51487;52.266;10.542;2023-02-03T08:46:57;4.50;;;2.50;;
64959;SDS011;51487;52.266;10.542;2023-02-03T08:49:24;3.13;;;2.17;;
64959;SDS011;51487;52.266;10.542;2023-02-03T08:51:52;2.80;;;2.20;;
64959;SDS011;51487;52.266;10.542;2023-02-03T08:54:19;2.33;;;2.10;;
64959;SDS011;51487;52.266;10.542;2023-02-03T08:56:44;2.22;;;2.03;;
64959;SDS011;51487;52.266;10.542;2023-02-03T08:59:11;3.17;;;2.40;;
64959;SDS011;51487;52.266;10.542;2023-02-03T09:01:37;4.25;;;2.55;;
64959;SDS011;51487;52.266;10.542;2023-02-03T09:04:04;4.25;;;2.40;;
64959;SDS011;51487;52.266;10.542;2023-02-03T09:06:32;4.63;;;2.35;;
64959;SDS011;51487;52.266;10.542;2023-02-03T09:08:59;3.40;;;2.40;;
64959;SDS011;51487;52.266;10.542;2023-02-03T09:11:25;5.13;;;2.40;;
64959;SDS011;51487;52.266;10.542;2023-02-03T09:13:50;3.97;;;2.40;;
64959;SDS011;51487;52.266;10.542;2023-02-03T09:16:16;2.67;;;2.28;;
64959;SDS011;51487;52.266;10.542;2023-02-03T09:18:44;8.93;;;2.80;;
64959;SDS011;51487;52.266;10.542;2023-02-03T09:21:11;4.60;;;2.60;;
64959;SDS011;51487;52.266;10.542;2023-02-03T09:23:40;3.63;;;2.80;;
64959;SDS011;51487;52.266;10.542;2023-02-03T09:26:06;5.75;;;2.63;;
64959;SDS011;51487;52.266;10.542;2023-02-03T09:28:34;7.57;;;2.90;;
64959;SDS011;51487;52.266;10.542;2023-02-03T09:31:01;6.00;;;3.17;;
64959;SDS011;51487;52.266;10.542;2023-02-03T09:33:39;6.53;;;3.83;;
64959;SDS011;51487;52.266;10.542;2023-02-03T09:36:05;5.55;;;3.17;;
64959;SDS011;51487;52.266;10.542;2023-02-03T09:38:32;6.28;;;3.55;;
64959;SDS011;51487;52.266;10.542;2023-02-03T09:47:37;6.03;;;3.30;;
64959;SDS011;51487;52.266;10.542;2023-02-03T09:50:11;6.18;;;3.38;;
64959;SDS011;51487;52.266;10.542;2023-02-03T09:52:45;7.75;;;3.60;;
64959;SDS011;51487;52.266;10.542;2023-02-03T09:58:12;7.57;;;3.42;;
64959;SDS011;51487;52.266;10.542;2023-02-03T10:00:45;11.20;;;3.78;;
64959;SDS011;51487;52.266;10.542;2023-02-03T10:06:19;8.80;;;3.28;;
64959;SDS011;51487;52.266;10.542;2023-02-03T10:14:31;5.78;;;2.88;;
64959;SDS011;51487;52.266;10.542;2023-02-03T10:17:16;4.53;;;2.80;;
64959;SDS011;51487;52.266;10.542;2023-02-03T10:22:59;9.27;;;3.53;;
64959;SDS011;51487;52.266;10.542;2023-02-03T10:25:38;7.85;;;3.03;;
64959;SDS011;51487;52.266;10.542;2023-02-03T10:28:15;8.85;;;3.33;;
64959;SDS011;51487;52.266;10.542;2023-02-03T10:30:55;8.00;;;2.63;;
64959;SDS011;51487;52.266;10.542;2023-02-03T10:33:30;7.85;;;2.80;;
64959;SDS011;51487;52.266;10.542;2023-02-03T10:38:43;9.27;;;3.10;;
64959;SDS011;51487;52.266;10.542;2023-02-03T10:41:23;8.77;;;2.88;;
64959;SDS011;51487;52.266;10.542;2023-02-03T10:43:49;10.32;;;2.92;;
64959;SDS011;51487;52.266;10.542;2023-02-03T10:48:52;6.28;;;2.63;;
64959;SDS011;51487;52.266;10.542;2023-02-03T10:51:37;11.98;;;4.00;;
64959;SDS011;51487;52.266;10.542;2023-02-03T10:56:53;5.82;;;2.40;;
64959;SDS011;51487;52.266;10.542;2023-02-03T10:59:32;5.20;;;2.00;;
64959;SDS011;51487;52.266;10.542;2023-02-03T11:02:06;9.57;;;2.15;;
64959;SDS011;51487;52.266;10.542;2023-02-03T11:04:35;8.57;;;2.53;;
64959;SDS011;51487;52.266;10.542;2023-02-03T11:07:02;6.38;;;2.20;;
64959;SDS011;51487;52.266;10.542;2023-02-03T11:09:38;6.43;;;2.22;;
64959;SDS011;51487;52.266;10.542;2023-02-03T11:14:39;8.23;;;1.98;;
64959;SDS011;51487;52.266;10.542;2023-02-03T11:17:24;9.93;;;2.38;;
64959;SDS011;51487;52.266;10.542;2023-02-03T11:19:57;5.32;;;2.33;;
64959;SDS011;51487;52.266;10.542;2023-02-03T11:22:36;6.13;;;2.43;;
64959;SDS011;51487;52.266;10.542;2023-02-03T11:25:04;9.27;;;2.20;;
64959;SDS011;51487;52.266;10.542;2023-02-03T11:27:44;7.90;;;2.35;;
64959;SDS011;51487;52.266;10.542;2023-02-03T11:32:54;7.35;;;2.63;;
64959;SDS011;51487;52.266;10.542;2023-02-03T11:35:24;10.15;;;2.63;;
64959;SDS011;51487;52.266;10.542;2023-02-03T11:37:57;7.15;;;2.05;;
64959;SDS011;51487;52.266;10.542;2023-02-03T11:45:40;7.55;;;2.03;;
64959;SDS011;51487;52.266;10.542;2023-02-03T11:48:31;11.07;;;2.35;;
64959;SDS011;51487;52.266;10.542;2023-02-03T11:51:23;8.80;;;2.85;;
64959;SDS011;51487;52.266;10.542;2023-02-03T12:00:16;12.88;;;2.80;;
64959;SDS011;51487;52.266;10.542;2023-02-03T12:03:17;13.52;;;2.88;;
64959;SDS011;51487;52.266;10.542;2023-02-03T12:09:02;12.80;;;3.42;;
64959;SDS011;51487;52.266;10.542;2023-02-03T12:17:22;19.83;;;3.28;;
64959;SDS011;51487;52.266;10.542;2023-02-03T12:20:05;14.27;;;3.53;;
64959;SDS011;51487;52.266;10.542;2023-02-03T12:29:00;11.68;;;3.33;;
64959;SDS011;51487;52.266;10.542;2023-02-03T12:31:34;13.18;;;3.25;;
64959;SDS011;51487;52.266;10.542;2023-02-03T12:37:15;15.38;;;3.28;;
64959;SDS011;51487;52.266;10.542;2023-02-03T12:39:53;18.33;;;3.45;;
64959;SDS011;51487;52.266;10.542;2023-02-03T12:42:50;13.27;;;3.58;;
64959;SDS011;51487;52.266;10.542;2023-02-03T12:45:24;13.98;;;2.97;;
64959;SDS011;51487;52.266;10.542;2023-02-03T12:48:15;14.88;;;2.92;;
64959;SDS011;51487;52.266;10.542;2023-02-03T12:50:59;15.27;;;3.10;;
64959;SDS011;51487;52.266;10.542;2023-02-03T12:53:32;15.25;;;4.38;;
64959;SDS011;51487;52.266;10.542;2023-02-03T12:56:07;14.85;;;3.70;;
64959;SDS011;51487;52.266;10.542;2023-02-03T12:58:39;16.95;;;3.60;;
64959;SDS011;51487;52.266;10.542;2023-02-03T13:12:30;14.77;;;3.33;;
64959;SDS011;51487;52.266;10.542;2023-02-03T13:15:29;12.10;;;2.85;;
64959;SDS011;51487;52.266;10.542;2023-02-03T13:18:07;14.05;;;3.95;;
64959;SDS011;51487;52.266;10.542;2023-02-03T13:20:58;17.70;;;3.63;;
64959;SDS011;51487;52.266;10.542;2023-02-03T13:23:24;10.90;;;2.63;;
64959;SDS011;51487;52.266;10.542;2023-02-03T13:26:02;15.15;;;3.75;;
64959;SDS011;51487;52.266;10.542;2023-02-03T13:35:06;11.55;;;2.90;;
64959;SDS011;51487;52.266;10.542;2023-02-03T13:41:03;12.27;;;2.92;;
64959;SDS011;51487;52.266;10.542;2023-02-03T13:43:43;13.00;;;2.88;;
64959;SDS011;51487;52.266;10.542;2023-02-03T13:46:47;12.10;;;3.22;;
64959;SDS011;51487;52.266;10.542;2023-02-03T13:49:06;12.97;;;2.97;;
64959;SDS011;51487;52.266;10.542;2023-02-03T13:51:35;11.60;;;2.72;;
64959;SDS011;51487;52.266;10.542;2023-02-03T13:54:20;14.98;;;3.47;;
64959;SDS011;51487;52.266;10.542;2023-02-03T13:57:01;14.93;;;3.72;;
64959;SDS011;51487;52.266;10.542;2023-02-03T13:59:43;18.38;;;3.83;;
64959;SDS011;51487;52.266;10.542;2023-02-03T14:10:24;12.23;;;2.75;;
64959;SDS011;51487;52.266;10.542;2023-02-03T14:15:17;9.93;;;2.70;;
64959;SDS011;51487;52.266;10.542;2023-02-03T14:22:53;14.50;;;2.95;;
64959;SDS011;51487;52.266;10.542;2023-02-03T14:25:24;9.60;;;2.85;;
64959;SDS011;51487;52.266;10.542;2023-02-03T14:27:58;15.18;;;3.33;;
64959;SDS011;51487;52.266;10.542;2023-02-03T14:30:27;16.52;;;3.22;;
64959;SDS011;51487;52.266;10.542;2023-02-03T14:32:53;12.68;;;2.72;;
64959;SDS011;51487;52.266;10.542;2023-02-03T14:35:42;13.90;;;3.50;;
64959;SDS011;51487;52.266;10.542;2023-02-03T14:38:12;12.68;;;3.22;;
64959;SDS011;51487;52.266;10.542;2023-02-03T14:46:16;13.77;;;3.63;;
64959;SDS011;51487;52.266;10.542;2023-02-03T14:57:40;12.60;;;3.13;;
64959;SDS011;51487;52.266;10.542;2023-02-03T15:05:39;15.35;;;3.25;;
64959;SDS011;51487;52.266;10.542;2023-02-03T15:11:53;14.23;;;2.50;;
64959;SDS011;51487;52.266;10.542;2023-02-03T15:16:47;10.98;;;2.80;;
64959;SDS011;51487;52.266;10.542;2023-02-03T15:19:21;12.43;;;3.65;;
64959;SDS011;51487;52.266;10.542;2023-02-03T15:21:51;10.23;;;2.95;;
64959;SDS011;51487;52.266;10.542;2023-02-03T15:24:18;11.73;;;2.80;;
64959;SDS011;51487;52.266;10.542;2023-02-03T15:26:49;14.82;;;3.00;;
64959;SDS011;51487;52.266;10.542;2023-02-03T15:29:32;12.55;;;3.78;;
64959;SDS011;51487;52.266;10.542;2023-02-03T15:32:11;14.05;;;3.00;;
64959;SDS011;51487;52.266;10.542;2023-02-03T15:34:51;17.25;;;3.60;;
64959;SDS011;51487;52.266;10.542;2023-02-03T15:37:27;13.98;;;2.75;;
64959;SDS011;51487;52.266;10.542;2023-02-03T15:40:15;11.82;;;3.15;;
64959;SDS011;51487;52.266;10.542;2023-02-03T15:54:02;14.57;;;3.03;;
64959;SDS011;51487;52.266;10.542;2023-02-03T15:56:45;11.38;;;3.47;;
64959;SDS011;51487;52.266;10.542;2023-02-03T15:59:31;12.20;;;3.90;;
64959;SDS011;51487;52.266;10.542;2023-02-03T16:02:01;14.35;;;3.08;;
64959;SDS011;51487;52.266;10.542;2023-02-03T16:04:42;17.83;;;3.67;;
64959;SDS011;51487;52.266;10.542;2023-02-03T16:07:16;13.80;;;3.28;;
64959;SDS011;51487;52.266;10.542;2023-02-03T16:09:44;14.90;;;3.75;;
64959;SDS011;51487;52.266;10.542;2023-02-03T16:14:57;9.90;;;3.40;;
64959;SDS011;51487;52.266;10.542;2023-02-03T16:22:37;12.70;;;3.55;;
64959;SDS011;51487;52.266;10.542;2023-02-03T16:27:38;14.35;;;3.40;;
64959;SDS011;51487;52.266;10.542;2023-02-03T16:35:59;15.18;;;3.03;;
64959;SDS011;51487;52.266;10.542;2023-02-03T16:38:55;15.52;;;3.78;;
64959;SDS011;51487;52.266;10.542;2023-02-03T16:41:45;13.75;;;3.00;;
64959;SDS011;51487;52.266;10.542;2023-02-03T16:44:30;11.60;;;3.10;;
64959;SDS011;51487;52.266;10.542;2023-02-03T16:47:24;15.05;;;4.55;;
64959;SDS011;51487;52.266;10.542;2023-02-03T16:50:12;11.60;;;2.47;;
64959;SDS011;51487;52.266;10.542;2023-02-03T16:53:05;11.13;;;2.80;;
64959;SDS011;51487;52.266;10.542;2023-02-03T16:55:39;15.85;;;3.15;;
64959;SDS011;51487;52.266;10.542;2023-02-03T16:58:08;17.52;;;3.60;;
64959;SDS011;51487;52.266;10.542;2023-02-03T17:00:36;10.93;;;3.15;;
64959;SDS011;51487;52.266;10.542;2023-02-03T17:03:05;15.82;;;3.90;;
64959;SDS011;51487;52.266;10.542;2023-02-03T17:05:35;12.20;;;3.30;;
64959;SDS011;51487;52.266;10.542;2023-02-03T17:08:03;15.70;;;3.80;;
64959;SDS011;51487;52.266;10.542;2023-02-03T17:10:29;15.73;;;3.50;;
64959;SDS011;51487;52.266;10.542;2023-02-03T17:12:57;13.00;;;3.38;;
64959;SDS011;51487;52.266;10.542;2023-02-03T17:15:22;15.95;;;4.60;;
64959;SDS011;51487;52.266;10.542;2023-02-03T17:17:48;18.15;;;3.80;;
64959;SDS011;51487;52.266;10.542;2023-02-03T17:20:13;19.90;;;3.70;;
64959;SDS011;51487;52.266;10.542;2023-02-03T17:22:39;13.57;;;3.10;;
64959;SDS011;51487;52.266;10.542;2023-02-03T17:25:05;17.10;;;3.53;;
64959;SDS011;51487;52.266;10.542;2023-02-03T17:27:32;14.48;;;3.47;;
64959;SDS011;51487;52.266;10.542;2023-02-03T17:29:57;13.30;;;3.08;;
64959;SDS011;51487;52.266;10.542;2023-02-03T17:32:23;13.90;;;3.92;;
64959;SDS011;51487;52.266;10.542;2023-02-03T17:34:48;18.15;;;4.20;;
64959;SDS011;51487;52.266;10.542;2023-02-03T17:37:14;13.55;;;3.25;;
64959;SDS011;51487;52.266;10.542;2023-02-03T17:39:39;18.77;;;4.25;;
64959;SDS011;51487;52.266;10.542;2023-02-03T17:42:05;19.33;;;3.70;;
64959;SDS011;51487;52.266;10.542;2023-02-03T17:44:32;20.60;;;4.50;;
64959;SDS011;51487;52.266;10.542;2023-02-03T17:46:59;18.05;;;3.92;;
64959;SDS011;51487;52.266;10.542;2023-02-03T17:49:26;18.52;;;3.30;;
64959;SDS011;51487;52.266;10.542;2023-02-03T17:51:52;16.17;;;3.78;;
64959;SDS011;51487;52.266;10.542;2023-02-03T17:54:18;15.07;;;3.90;;
64959;SDS011;51487;52.266;10.542;2023-02-03T17:56:43;17.33;;;3.72;;
64959;SDS011;51487;52.266;10.542;2023-02-03T17:59:11;14.50;;;3.65;;